Home

Weather

KSLC Current Conditions

KSLC 212254Z 16005KT 10SM SCT090 BKN200 BKN240 30/07 A2998 RMK AO2 SLP097 TCU DSNT NE-SW T03000072

KSLC Aviation Forecast

TAF AMD KSLC 212104Z 2121/2224 19011KT P6SM SCT090 SCT120 FM212200 32006KT P6SM SCT090 BKN120 FM220200 14009KT P6SM VCSH SCT070 BKN100 FM220700 16007KT P6SM SCT100 SCT150 FM221900 31007KT P6SM VCSH SCT100 BKN120


86° F
Mostly Cloudy
Mostly Cloudy

Partly Cloudy
Tuesday
Partly Cloudy
High 86°/Low 66°
20%
Chance of a Thunderstorm
Wednesday
Chance of a Thunderstorm
High 80°/Low 62°
50%
Clear
Thursday
Clear
High 86°/Low 66°
0%
Clear
Friday
Clear
High 90°/Low 66°
0%
Clear
Saturday
Clear
High 88°/Low 68°
0%
Clear
Sunday
Clear
High 89°/Low 64°
0%